sensor_id;sensor_type;location;lat;lon;timestamp;temperature;humidity
12708;DHT22;6418;50.824;4.718;2022-10-30T00:00:53;15.50;99.90
12708;DHT22;6418;50.824;4.718;2022-10-30T00:03:20;15.50;99.90
12708;DHT22;6418;50.824;4.718;2022-10-30T00:05:49;15.40;99.90
12708;DHT22;6418;50.824;4.718;2022-10-30T00:08:18;15.40;99.90
12708;DHT22;6418;50.824;4.718;2022-10-30T00:10:46;15.40;99.90
12708;DHT22;6418;50.824;4.718;2022-10-30T00:13:14;15.30;99.90
12708;DHT22;6418;50.824;4.718;2022-10-30T00:15:47;15.20;99.90
12708;DHT22;6418;50.824;4.718;2022-10-30T00:18:14;15.20;99.90
12708;DHT22;6418;50.824;4.718;2022-10-30T00:20:41;15.20;99.90
12708;DHT22;6418;50.824;4.718;2022-10-30T00:23:08;15.10;99.90
12708;DHT22;6418;50.824;4.718;2022-10-30T00:25:35;15.00;99.90
12708;DHT22;6418;50.824;4.718;2022-10-30T00:28:02;15.00;99.90
12708;DHT22;6418;50.824;4.718;2022-10-30T00:30:29;14.90;99.90
12708;DHT22;6418;50.824;4.718;2022-10-30T00:32:58;14.90;99.90
12708;DHT22;6418;50.824;4.718;2022-10-30T00:35:25;14.90;99.90
12708;DHT22;6418;50.824;4.718;2022-10-30T00:37:52;14.90;99.90
12708;DHT22;6418;50.824;4.718;2022-10-30T00:40:19;14.80;99.90
12708;DHT22;6418;50.824;4.718;2022-10-30T00:42:46;14.80;99.90
12708;DHT22;6418;50.824;4.718;2022-10-30T00:45:15;14.80;99.90
12708;DHT22;6418;50.824;4.718;2022-10-30T00:47:44;14.70;99.90
12708;DHT22;6418;50.824;4.718;2022-10-30T00:50:16;14.60;99.90
12708;DHT22;6418;50.824;4.718;2022-10-30T00:52:48;14.60;99.90
12708;DHT22;6418;50.824;4.718;2022-10-30T00:55:20;14.60;99.90
12708;DHT22;6418;50.824;4.718;2022-10-30T00:57:48;14.50;99.90
12708;DHT22;6418;50.824;4.718;2022-10-30T01:00:19;14.50;99.90
12708;DHT22;6418;50.824;4.718;2022-10-30T01:02:46;14.50;99.90
12708;DHT22;6418;50.824;4.718;2022-10-30T01:05:17;14.40;99.90
12708;DHT22;6418;50.824;4.718;2022-10-30T01:07:45;14.40;99.90
12708;DHT22;6418;50.824;4.718;2022-10-30T01:10:13;14.40;99.90
12708;DHT22;6418;50.824;4.718;2022-10-30T01:12:41;14.40;99.90
12708;DHT22;6418;50.824;4.718;2022-10-30T01:15:10;14.30;99.90
12708;DHT22;6418;50.824;4.718;2022-10-30T01:18:01;14.30;99.90
12708;DHT22;6418;50.824;4.718;2022-10-30T01:20:55;14.30;99.90
12708;DHT22;6418;50.824;4.718;2022-10-30T01:23:32;14.30;99.90
12708;DHT22;6418;50.824;4.718;2022-10-30T01:26:09;14.20;99.90
12708;DHT22;6418;50.824;4.718;2022-10-30T01:28:49;14.20;99.90
12708;DHT22;6418;50.824;4.718;2022-10-30T01:31:32;14.20;99.90
12708;DHT22;6418;50.824;4.718;2022-10-30T01:34:12;14.20;99.90
12708;DHT22;6418;50.824;4.718;2022-10-30T01:36:47;14.10;99.90
12708;DHT22;6418;50.824;4.718;2022-10-30T01:39:19;14.10;99.90
12708;DHT22;6418;50.824;4.718;2022-10-30T01:41:47;14.10;99.90
12708;DHT22;6418;50.824;4.718;2022-10-30T01:44:17;14.10;99.90
12708;DHT22;6418;50.824;4.718;2022-10-30T01:46:55;14.10;99.90
12708;DHT22;6418;50.824;4.718;2022-10-30T01:49:55;14.00;99.90
12708;DHT22;6418;50.824;4.718;2022-10-30T01:52:35;14.00;99.90
12708;DHT22;6418;50.824;4.718;2022-10-30T01:55:10;14.00;99.90
12708;DHT22;6418;50.824;4.718;2022-10-30T01:57:43;14.00;99.90
12708;DHT22;6418;50.824;4.718;2022-10-30T02:00:15;13.90;99.90
12708;DHT22;6418;50.824;4.718;2022-10-30T02:02:44;13.90;99.90
12708;DHT22;6418;50.824;4.718;2022-10-30T02:05:18;13.90;99.90
12708;DHT22;6418;50.824;4.718;2022-10-30T02:07:48;13.90;99.90
12708;DHT22;6418;50.824;4.718;2022-10-30T02:10:15;13.90;99.90
12708;DHT22;6418;50.824;4.718;2022-10-30T02:12:42;13.90;99.90
12708;DHT22;6418;50.824;4.718;2022-10-30T02:15:09;13.90;99.90
12708;DHT22;6418;50.824;4.718;2022-10-30T02:17:36;13.80;99.90
12708;DHT22;6418;50.824;4.718;2022-10-30T02:20:05;13.90;99.90
12708;DHT22;6418;50.824;4.718;2022-10-30T02:22:34;13.80;99.90
12708;DHT22;6418;50.824;4.718;2022-10-30T02:25:01;13.80;99.90
12708;DHT22;6418;50.824;4.718;2022-10-30T02:27:28;13.80;99.90
12708;DHT22;6418;50.824;4.718;2022-10-30T02:29:55;13.70;99.90
12708;DHT22;6418;50.824;4.718;2022-10-30T02:32:22;13.70;99.90
12708;DHT22;6418;50.824;4.718;2022-10-30T02:34:48;13.70;99.90
12708;DHT22;6418;50.824;4.718;2022-10-30T02:37:15;13.70;99.90
12708;DHT22;6418;50.824;4.718;2022-10-30T02:39:44;13.60;99.90
12708;DHT22;6418;50.824;4.718;2022-10-30T02:42:11;13.70;99.90
12708;DHT22;6418;50.824;4.718;2022-10-30T02:44:37;13.60;99.90
12708;DHT22;6418;50.824;4.718;2022-10-30T02:47:04;13.60;99.90
12708;DHT22;6418;50.824;4.718;2022-10-30T02:49:31;13.60;99.90
12708;DHT22;6418;50.824;4.718;2022-10-30T02:51:58;13.60;99.90
12708;DHT22;6418;50.824;4.718;2022-10-30T02:54:25;13.60;99.90
12708;DHT22;6418;50.824;4.718;2022-10-30T02:56:53;13.60;99.90
12708;DHT22;6418;50.824;4.718;2022-10-30T02:59:20;13.60;99.90
12708;DHT22;6418;50.824;4.718;2022-10-30T03:01:47;13.60;99.90
12708;DHT22;6418;50.824;4.718;2022-10-30T03:04:14;13.60;99.90
12708;DHT22;6418;50.824;4.718;2022-10-30T03:06:41;13.60;99.90
12708;DHT22;6418;50.824;4.718;2022-10-30T03:09:08;13.60;99.90
12708;DHT22;6418;50.824;4.718;2022-10-30T03:11:35;13.60;99.90
12708;DHT22;6418;50.824;4.718;2022-10-30T03:14:03;13.60;99.90
12708;DHT22;6418;50.824;4.718;2022-10-30T03:16:30;13.60;99.90
12708;DHT22;6418;50.824;4.718;2022-10-30T03:18:58;13.60;99.90
12708;DHT22;6418;50.824;4.718;2022-10-30T03:21:26;13.60;99.90
12708;DHT22;6418;50.824;4.718;2022-10-30T03:23:54;13.60;99.90
12708;DHT22;6418;50.824;4.718;2022-10-30T03:26:21;13.60;99.90
12708;DHT22;6418;50.824;4.718;2022-10-30T03:28:48;13.50;99.90
12708;DHT22;6418;50.824;4.718;2022-10-30T03:31:18;13.50;99.90
12708;DHT22;6418;50.824;4.718;2022-10-30T03:33:45;13.50;99.90
12708;DHT22;6418;50.824;4.718;2022-10-30T03:36:13;13.60;99.90
12708;DHT22;6418;50.824;4.718;2022-10-30T03:38:41;13.60;99.90
12708;DHT22;6418;50.824;4.718;2022-10-30T03:41:08;13.60;99.90
12708;DHT22;6418;50.824;4.718;2022-10-30T03:43:35;13.60;99.90
12708;DHT22;6418;50.824;4.718;2022-10-30T03:46:02;13.60;99.90
12708;DHT22;6418;50.824;4.718;2022-10-30T03:48:30;13.60;99.90
12708;DHT22;6418;50.824;4.718;2022-10-30T03:50:58;13.60;99.90
12708;DHT22;6418;50.824;4.718;2022-10-30T03:53:26;13.70;99.90
12708;DHT22;6418;50.824;4.718;2022-10-30T03:55:57;13.70;99.90
12708;DHT22;6418;50.824;4.718;2022-10-30T03:58:24;13.70;99.90
12708;DHT22;6418;50.824;4.718;2022-10-30T04:00:51;13.70;99.90
12708;DHT22;6418;50.824;4.718;2022-10-30T04:03:19;13.70;99.90
12708;DHT22;6418;50.824;4.718;2022-10-30T04:05:47;13.70;99.90
12708;DHT22;6418;50.824;4.718;2022-10-30T04:08:15;13.70;99.90
12708;DHT22;6418;50.824;4.718;2022-10-30T04:10:43;13.70;99.90
12708;DHT22;6418;50.824;4.718;2022-10-30T04:13:11;13.70;99.90
12708;DHT22;6418;50.824;4.718;2022-10-30T04:15:39;13.70;99.90
12708;DHT22;6418;50.824;4.718;2022-10-30T04:18:06;13.70;99.90
12708;DHT22;6418;50.824;4.718;2022-10-30T04:20:34;13.70;99.90
12708;DHT22;6418;50.824;4.718;2022-10-30T04:23:04;13.70;99.90
12708;DHT22;6418;50.824;4.718;2022-10-30T04:25:33;13.70;99.90
12708;DHT22;6418;50.824;4.718;2022-10-30T04:28:00;13.70;99.90
12708;DHT22;6418;50.824;4.718;2022-10-30T04:30:27;13.70;99.90
12708;DHT22;6418;50.824;4.718;2022-10-30T04:32:58;13.70;99.90
12708;DHT22;6418;50.824;4.718;2022-10-30T04:35:28;13.70;99.90
12708;DHT22;6418;50.824;4.718;2022-10-30T04:37:56;13.70;99.90
12708;DHT22;6418;50.824;4.718;2022-10-30T04:40:27;13.60;99.90
12708;DHT22;6418;50.824;4.718;2022-10-30T04:42:54;13.60;99.90
12708;DHT22;6418;50.824;4.718;2022-10-30T04:45:22;13.50;99.90
12708;DHT22;6418;50.824;4.718;2022-10-30T04:47:49;13.50;99.90
12708;DHT22;6418;50.824;4.718;2022-10-30T04:50:16;13.50;99.90
12708;DHT22;6418;50.824;4.718;2022-10-30T04:52:43;13.50;99.90
12708;DHT22;6418;50.824;4.718;2022-10-30T04:55:10;13.50;99.90
12708;DHT22;6418;50.824;4.718;2022-10-30T04:57:39;13.50;99.90
12708;DHT22;6418;50.824;4.718;2022-10-30T05:00:07;13.50;99.90
12708;DHT22;6418;50.824;4.718;2022-10-30T05:02:35;13.50;99.90
12708;DHT22;6418;50.824;4.718;2022-10-30T05:05:02;13.40;99.90
12708;DHT22;6418;50.824;4.718;2022-10-30T05:07:30;13.50;99.90
12708;DHT22;6418;50.824;4.718;2022-10-30T05:09:57;13.50;99.90
12708;DHT22;6418;50.824;4.718;2022-10-30T05:12:23;13.30;99.90
12708;DHT22;6418;50.824;4.718;2022-10-30T05:14:52;13.40;99.90
12708;DHT22;6418;50.824;4.718;2022-10-30T05:17:19;13.40;99.90
12708;DHT22;6418;50.824;4.718;2022-10-30T05:19:46;13.40;99.90
12708;DHT22;6418;50.824;4.718;2022-10-30T05:22:13;13.40;99.90
12708;DHT22;6418;50.824;4.718;2022-10-30T05:24:40;13.40;99.90
12708;DHT22;6418;50.824;4.718;2022-10-30T05:27:07;13.30;99.90
12708;DHT22;6418;50.824;4.718;2022-10-30T05:29:34;13.30;99.90
12708;DHT22;6418;50.824;4.718;2022-10-30T05:32:02;13.30;99.90
12708;DHT22;6418;50.824;4.718;2022-10-30T05:34:29;13.30;99.90
12708;DHT22;6418;50.824;4.718;2022-10-30T05:36:56;13.30;99.90
12708;DHT22;6418;50.824;4.718;2022-10-30T05:39:23;13.20;99.90
12708;DHT22;6418;50.824;4.718;2022-10-30T05:41:50;13.20;99.90
12708;DHT22;6418;50.824;4.718;2022-10-30T05:44:16;13.20;99.90
12708;DHT22;6418;50.824;4.718;2022-10-30T05:46:43;13.20;99.90
12708;DHT22;6418;50.824;4.718;2022-10-30T05:49:12;13.10;99.90
12708;DHT22;6418;50.824;4.718;2022-10-30T05:51:39;13.10;99.90
12708;DHT22;6418;50.824;4.718;2022-10-30T05:54:06;13.10;99.90
12708;DHT22;6418;50.824;4.718;2022-10-30T05:56:33;13.00;99.90
12708;DHT22;6418;50.824;4.718;2022-10-30T05:58:59;13.00;99.90
12708;DHT22;6418;50.824;4.718;2022-10-30T06:01:26;13.00;99.90
12708;DHT22;6418;50.824;4.718;2022-10-30T06:03:53;13.00;99.90
12708;DHT22;6418;50.824;4.718;2022-10-30T06:06:21;13.00;99.90
12708;DHT22;6418;50.824;4.718;2022-10-30T06:08:48;12.90;99.90
12708;DHT22;6418;50.824;4.718;2022-10-30T06:11:15;12.90;99.90
12708;DHT22;6418;50.824;4.718;2022-10-30T06:13:42;12.80;99.90
12708;DHT22;6418;50.824;4.718;2022-10-30T06:16:09;12.80;99.90
12708;DHT22;6418;50.824;4.718;2022-10-30T06:18:36;12.80;99.90
12708;DHT22;6418;50.824;4.718;2022-10-30T06:21:03;12.80;99.90
12708;DHT22;6418;50.824;4.718;2022-10-30T06:23:32;12.80;99.90
12708;DHT22;6418;50.824;4.718;2022-10-30T06:25:59;12.80;99.90
12708;DHT22;6418;50.824;4.718;2022-10-30T06:28:26;12.70;99.90
12708;DHT22;6418;50.824;4.718;2022-10-30T06:30:53;12.70;99.90
12708;DHT22;6418;50.824;4.718;2022-10-30T06:33:20;12.70;99.90
12708;DHT22;6418;50.824;4.718;2022-10-30T06:35:48;12.70;99.90
12708;DHT22;6418;50.824;4.718;2022-10-30T06:38:15;12.70;99.90
12708;DHT22;6418;50.824;4.718;2022-10-30T06:40:43;12.70;99.90
12708;DHT22;6418;50.824;4.718;2022-10-30T06:43:10;12.70;99.90
12708;DHT22;6418;50.824;4.718;2022-10-30T06:45:37;12.70;99.90
12708;DHT22;6418;50.824;4.718;2022-10-30T06:48:04;12.70;99.90
12708;DHT22;6418;50.824;4.718;2022-10-30T06:50:31;12.80;99.90
12708;DHT22;6418;50.824;4.718;2022-10-30T06:52:58;12.80;99.90
12708;DHT22;6418;50.824;4.718;2022-10-30T06:55:25;12.80;99.90
12708;DHT22;6418;50.824;4.718;2022-10-30T06:57:54;12.80;99.90
12708;DHT22;6418;50.824;4.718;2022-10-30T07:00:22;12.80;99.90
12708;DHT22;6418;50.824;4.718;2022-10-30T07:02:56;12.80;99.90
12708;DHT22;6418;50.824;4.718;2022-10-30T07:05:23;12.80;99.90
12708;DHT22;6418;50.824;4.718;2022-10-30T07:07:50;12.80;99.90
12708;DHT22;6418;50.824;4.718;2022-10-30T07:10:19;12.80;99.90
12708;DHT22;6418;50.824;4.718;2022-10-30T07:12:55;12.80;99.90
12708;DHT22;6418;50.824;4.718;2022-10-30T07:15:23;12.80;99.90
12708;DHT22;6418;50.824;4.718;2022-10-30T07:18:00;12.80;99.90
12708;DHT22;6418;50.824;4.718;2022-10-30T07:20:30;12.80;99.90
12708;DHT22;6418;50.824;4.718;2022-10-30T07:22:57;12.80;99.90
12708;DHT22;6418;50.824;4.718;2022-10-30T07:25:25;12.80;99.90
12708;DHT22;6418;50.824;4.718;2022-10-30T07:27:55;12.90;99.90
12708;DHT22;6418;50.824;4.718;2022-10-30T07:30:24;12.90;99.90
12708;DHT22;6418;50.824;4.718;2022-10-30T07:32:59;12.90;99.90
12708;DHT22;6418;50.824;4.718;2022-10-30T07:35:26;12.90;99.90
12708;DHT22;6418;50.824;4.718;2022-10-30T07:37:54;12.90;99.90
12708;DHT22;6418;50.824;4.718;2022-10-30T07:40:21;13.00;99.90
12708;DHT22;6418;50.824;4.718;2022-10-30T07:42:48;13.00;99.90
12708;DHT22;6418;50.824;4.718;2022-10-30T07:45:22;13.00;99.90
12708;DHT22;6418;50.824;4.718;2022-10-30T07:47:49;13.10;99.90
12708;DHT22;6418;50.824;4.718;2022-10-30T07:50:16;13.10;99.90
12708;DHT22;6418;50.824;4.718;2022-10-30T07:52:43;13.10;99.90
12708;DHT22;6418;50.824;4.718;2022-10-30T07:55:10;13.20;99.90
12708;DHT22;6418;50.824;4.718;2022-10-30T07:57:37;13.20;99.90
12708;DHT22;6418;50.824;4.718;2022-10-30T08:00:07;13.30;99.90
12708;DHT22;6418;50.824;4.718;2022-10-30T08:02:36;13.30;99.90
12708;DHT22;6418;50.824;4.718;2022-10-30T08:05:04;13.40;99.90
12708;DHT22;6418;50.824;4.718;2022-10-30T08:07:33;13.40;99.90
12708;DHT22;6418;50.824;4.718;2022-10-30T08:10:00;13.50;99.90
12708;DHT22;6418;50.824;4.718;2022-10-30T08:12:27;13.50;99.90
12708;DHT22;6418;50.824;4.718;2022-10-30T08:14:54;13.60;99.90
12708;DHT22;6418;50.824;4.718;2022-10-30T08:17:21;13.60;99.90
12708;DHT22;6418;50.824;4.718;2022-10-30T08:19:50;13.70;99.90
12708;DHT22;6418;50.824;4.718;2022-10-30T08:22:17;13.70;99.90
12708;DHT22;6418;50.824;4.718;2022-10-30T08:24:44;13.70;99.90
12708;DHT22;6418;50.824;4.718;2022-10-30T08:27:11;13.80;99.90
12708;DHT22;6418;50.824;4.718;2022-10-30T08:29:37;13.80;99.90
12708;DHT22;6418;50.824;4.718;2022-10-30T08:32:05;13.90;99.90
12708;DHT22;6418;50.824;4.718;2022-10-30T08:34:32;13.90;99.90
12708;DHT22;6418;50.824;4.718;2022-10-30T08:37:01;14.00;99.90
12708;DHT22;6418;50.824;4.718;2022-10-30T08:39:28;14.10;99.90
12708;DHT22;6418;50.824;4.718;2022-10-30T08:41:56;14.10;99.90
12708;DHT22;6418;50.824;4.718;2022-10-30T08:44:23;14.20;99.90
12708;DHT22;6418;50.824;4.718;2022-10-30T08:46:50;14.30;99.90
12708;DHT22;6418;50.824;4.718;2022-10-30T08:49:17;14.40;99.90
12708;DHT22;6418;50.824;4.718;2022-10-30T08:51:44;14.50;99.90
12708;DHT22;6418;50.824;4.718;2022-10-30T08:54:12;14.60;99.90
12708;DHT22;6418;50.824;4.718;2022-10-30T08:56:39;14.70;99.90
12708;DHT22;6418;50.824;4.718;2022-10-30T08:59:06;14.70;99.90
12708;DHT22;6418;50.824;4.718;2022-10-30T09:01:33;14.80;99.90
12708;DHT22;6418;50.824;4.718;2022-10-30T09:04:01;14.80;99.90
12708;DHT22;6418;50.824;4.718;2022-10-30T09:06:29;14.90;99.90
12708;DHT22;6418;50.824;4.718;2022-10-30T09:08:56;14.90;99.90
12708;DHT22;6418;50.824;4.718;2022-10-30T09:11:24;15.00;99.90
12708;DHT22;6418;50.824;4.718;2022-10-30T09:13:51;15.00;99.90
12708;DHT22;6418;50.824;4.718;2022-10-30T09:16:18;15.00;99.90
12708;DHT22;6418;50.824;4.718;2022-10-30T09:18:46;15.00;99.90
12708;DHT22;6418;50.824;4.718;2022-10-30T09:21:13;15.00;99.90
12708;DHT22;6418;50.824;4.718;2022-10-30T09:23:41;15.10;99.90
12708;DHT22;6418;50.824;4.718;2022-10-30T09:26:09;15.10;99.90
12708;DHT22;6418;50.824;4.718;2022-10-30T09:28:37;15.10;99.90
12708;DHT22;6418;50.824;4.718;2022-10-30T09:31:04;15.20;99.90
12708;DHT22;6418;50.824;4.718;2022-10-30T09:33:31;15.20;99.90
12708;DHT22;6418;50.824;4.718;2022-10-30T09:35:58;15.30;99.90
12708;DHT22;6418;50.824;4.718;2022-10-30T09:38:27;15.30;99.90
12708;DHT22;6418;50.824;4.718;2022-10-30T09:41:14;15.30;99.90
12708;DHT22;6418;50.824;4.718;2022-10-30T09:43:58;15.40;99.90
12708;DHT22;6418;50.824;4.718;2022-10-30T09:46:45;15.40;99.90
12708;DHT22;6418;50.824;4.718;2022-10-30T09:49:25;15.50;99.90
12708;DHT22;6418;50.824;4.718;2022-10-30T09:52:07;15.50;99.90
12708;DHT22;6418;50.824;4.718;2022-10-30T09:54:47;15.60;99.90
12708;DHT22;6418;50.824;4.718;2022-10-30T09:57:19;15.60;99.90
12708;DHT22;6418;50.824;4.718;2022-10-30T10:00:00;15.70;99.90
12708;DHT22;6418;50.824;4.718;2022-10-30T10:02:33;15.70;99.90
12708;DHT22;6418;50.824;4.718;2022-10-30T10:05:14;15.80;99.90
12708;DHT22;6418;50.824;4.718;2022-10-30T10:07:46;15.90;99.90
12708;DHT22;6418;50.824;4.718;2022-10-30T10:10:18;16.00;99.90
12708;DHT22;6418;50.824;4.718;2022-10-30T10:12:47;16.00;99.90
12708;DHT22;6418;50.824;4.718;2022-10-30T10:15:28;16.10;99.90
12708;DHT22;6418;50.824;4.718;2022-10-30T10:18:00;16.20;99.90
12708;DHT22;6418;50.824;4.718;2022-10-30T10:20:31;16.30;99.90
12708;DHT22;6418;50.824;4.718;2022-10-30T10:23:01;16.40;99.90
12708;DHT22;6418;50.824;4.718;2022-10-30T10:25:30;16.50;99.90
12708;DHT22;6418;50.824;4.718;2022-10-30T10:28:10;16.60;99.90
12708;DHT22;6418;50.824;4.718;2022-10-30T10:30:50;16.80;99.90
12708;DHT22;6418;50.824;4.718;2022-10-30T10:33:28;16.90;99.90
12708;DHT22;6418;50.824;4.718;2022-10-30T10:36:07;17.00;99.90
12708;DHT22;6418;50.824;4.718;2022-10-30T10:38:47;17.10;99.90
12708;DHT22;6418;50.824;4.718;2022-10-30T10:41:25;17.30;99.90
12708;DHT22;6418;50.824;4.718;2022-10-30T10:44:11;17.40;99.90
12708;DHT22;6418;50.824;4.718;2022-10-30T10:46:58;17.60;99.90
12708;DHT22;6418;50.824;4.718;2022-10-30T10:49:41;17.70;99.90
12708;DHT22;6418;50.824;4.718;2022-10-30T10:52:12;17.90;99.90
12708;DHT22;6418;50.824;4.718;2022-10-30T10:54:42;18.00;99.90
12708;DHT22;6418;50.824;4.718;2022-10-30T10:57:15;18.10;99.90
12708;DHT22;6418;50.824;4.718;2022-10-30T10:59:44;18.30;99.90
12708;DHT22;6418;50.824;4.718;2022-10-30T11:02:30;18.30;99.90
12708;DHT22;6418;50.824;4.718;2022-10-30T11:05:03;18.40;99.90
12708;DHT22;6418;50.824;4.718;2022-10-30T11:07:43;18.50;99.90
12708;DHT22;6418;50.824;4.718;2022-10-30T11:10:12;18.60;99.90
12708;DHT22;6418;50.824;4.718;2022-10-30T11:12:40;18.60;99.90
12708;DHT22;6418;50.824;4.718;2022-10-30T11:15:20;18.70;99.90
12708;DHT22;6418;50.824;4.718;2022-10-30T11:17:58;18.70;99.90
12708;DHT22;6418;50.824;4.718;2022-10-30T11:20:29;18.80;99.90
12708;DHT22;6418;50.824;4.718;2022-10-30T11:22:57;18.80;99.90
12708;DHT22;6418;50.824;4.718;2022-10-30T11:25:25;18.90;99.90
12708;DHT22;6418;50.824;4.718;2022-10-30T11:27:54;19.00;99.90
12708;DHT22;6418;50.824;4.718;2022-10-30T11:30:23;19.00;99.90
12708;DHT22;6418;50.824;4.718;2022-10-30T11:32:54;19.10;99.90
12708;DHT22;6418;50.824;4.718;2022-10-30T11:35:21;19.20;99.90
12708;DHT22;6418;50.824;4.718;2022-10-30T11:37:49;19.20;99.90
12708;DHT22;6418;50.824;4.718;2022-10-30T11:40:18;19.30;99.90
12708;DHT22;6418;50.824;4.718;2022-10-30T11:42:47;19.30;99.90
12708;DHT22;6418;50.824;4.718;2022-10-30T11:45:17;19.30;99.90
12708;DHT22;6418;50.824;4.718;2022-10-30T11:47:48;19.40;99.90
12708;DHT22;6418;50.824;4.718;2022-10-30T11:50:20;19.40;99.90
12708;DHT22;6418;50.824;4.718;2022-10-30T11:52:50;19.40;99.90
12708;DHT22;6418;50.824;4.718;2022-10-30T11:55:22;19.40;99.90
12708;DHT22;6418;50.824;4.718;2022-10-30T11:57:51;19.50;99.90
12708;DHT22;6418;50.824;4.718;2022-10-30T12:00:22;19.50;99.90
12708;DHT22;6418;50.824;4.718;2022-10-30T12:02:51;19.50;99.90
12708;DHT22;6418;50.824;4.718;2022-10-30T12:05:40;19.60;99.90
12708;DHT22;6418;50.824;4.718;2022-10-30T12:08:24;19.60;99.90
12708;DHT22;6418;50.824;4.718;2022-10-30T12:11:00;19.60;99.90
12708;DHT22;6418;50.824;4.718;2022-10-30T12:13:34;19.60;99.90
12708;DHT22;6418;50.824;4.718;2022-10-30T12:16:08;19.60;99.90
12708;DHT22;6418;50.824;4.718;2022-10-30T12:18:36;19.70;99.90
12708;DHT22;6418;50.824;4.718;2022-10-30T12:21:04;19.70;99.90
12708;DHT22;6418;50.824;4.718;2022-10-30T12:23:32;19.70;99.90
12708;DHT22;6418;50.824;4.718;2022-10-30T12:26:00;19.70;99.90
12708;DHT22;6418;50.824;4.718;2022-10-30T12:28:34;19.80;99.90
12708;DHT22;6418;50.824;4.718;2022-10-30T12:31:05;19.80;99.90
12708;DHT22;6418;50.824;4.718;2022-10-30T12:33:38;19.80;99.90
12708;DHT22;6418;50.824;4.718;2022-10-30T12:36:10;19.80;99.90
12708;DHT22;6418;50.824;4.718;2022-10-30T12:38:43;19.90;99.90
12708;DHT22;6418;50.824;4.718;2022-10-30T12:41:15;19.90;99.90
12708;DHT22;6418;50.824;4.718;2022-10-30T12:43:47;19.90;99.90
12708;DHT22;6418;50.824;4.718;2022-10-30T12:46:26;20.00;99.90
12708;DHT22;6418;50.824;4.718;2022-10-30T12:48:58;20.00;99.90
12708;DHT22;6418;50.824;4.718;2022-10-30T12:51:34;20.00;99.90
12708;DHT22;6418;50.824;4.718;2022-10-30T12:54:13;20.00;99.90
12708;DHT22;6418;50.824;4.718;2022-10-30T12:56:46;20.10;99.90
12708;DHT22;6418;50.824;4.718;2022-10-30T12:59:29;20.10;99.90
12708;DHT22;6418;50.824;4.718;2022-10-30T13:02:00;20.10;99.90
12708;DHT22;6418;50.824;4.718;2022-10-30T13:04:33;20.10;99.90
12708;DHT22;6418;50.824;4.718;2022-10-30T13:07:10;20.10;99.90
12708;DHT22;6418;50.824;4.718;2022-10-30T13:09:41;20.10;99.90
12708;DHT22;6418;50.824;4.718;2022-10-30T13:12:13;20.10;99.90
12708;DHT22;6418;50.824;4.718;2022-10-30T13:14:44;20.20;99.90
12708;DHT22;6418;50.824;4.718;2022-10-30T13:17:14;20.20;99.90
12708;DHT22;6418;50.824;4.718;2022-10-30T13:19:43;20.20;99.90
12708;DHT22;6418;50.824;4.718;2022-10-30T13:22:21;20.20;99.90
12708;DHT22;6418;50.824;4.718;2022-10-30T13:24:54;20.20;99.90
12708;DHT22;6418;50.824;4.718;2022-10-30T13:27:28;20.20;99.90
12708;DHT22;6418;50.824;4.718;2022-10-30T13:30:01;20.20;99.90
12708;DHT22;6418;50.824;4.718;2022-10-30T13:32:37;20.20;99.90
12708;DHT22;6418;50.824;4.718;2022-10-30T13:35:16;20.10;99.90
12708;DHT22;6418;50.824;4.718;2022-10-30T13:37:53;20.20;99.90
12708;DHT22;6418;50.824;4.718;2022-10-30T13:40:31;20.10;99.90
12708;DHT22;6418;50.824;4.718;2022-10-30T13:43:05;20.10;99.90
12708;DHT22;6418;50.824;4.718;2022-10-30T13:45:54;20.10;99.90
12708;DHT22;6418;50.824;4.718;2022-10-30T13:48:33;20.10;99.90
12708;DHT22;6418;50.824;4.718;2022-10-30T13:51:15;20.00;99.90
12708;DHT22;6418;50.824;4.718;2022-10-30T13:53:50;20.00;99.90
12708;DHT22;6418;50.824;4.718;2022-10-30T13:56:21;20.00;99.90
12708;DHT22;6418;50.824;4.718;2022-10-30T13:58:55;20.00;99.90
12708;DHT22;6418;50.824;4.718;2022-10-30T14:01:31;20.00;99.90
12708;DHT22;6418;50.824;4.718;2022-10-30T14:04:03;20.00;99.90
12708;DHT22;6418;50.824;4.718;2022-10-30T14:06:37;20.00;99.90
12708;DHT22;6418;50.824;4.718;2022-10-30T14:09:14;20.00;99.90
12708;DHT22;6418;50.824;4.718;2022-10-30T14:11:45;20.00;99.90
12708;DHT22;6418;50.824;4.718;2022-10-30T14:14:31;20.00;99.90
12708;DHT22;6418;50.824;4.718;2022-10-30T14:17:13;20.00;99.90
12708;DHT22;6418;50.824;4.718;2022-10-30T14:20:20;20.00;99.90
12708;DHT22;6418;50.824;4.718;2022-10-30T14:23:05;19.90;99.90
12708;DHT22;6418;50.824;4.718;2022-10-30T14:25:35;19.90;99.90
12708;DHT22;6418;50.824;4.718;2022-10-30T14:28:02;19.90;99.90
12708;DHT22;6418;50.824;4.718;2022-10-30T14:30:29;19.90;99.90
12708;DHT22;6418;50.824;4.718;2022-10-30T14:32:59;19.80;99.90
12708;DHT22;6418;50.824;4.718;2022-10-30T14:35:38;19.80;99.90
12708;DHT22;6418;50.824;4.718;2022-10-30T14:38:25;19.80;99.90
12708;DHT22;6418;50.824;4.718;2022-10-30T14:41:24;19.80;99.90
12708;DHT22;6418;50.824;4.718;2022-10-30T14:46:46;19.80;99.90
12708;DHT22;6418;50.824;4.718;2022-10-30T14:49:35;19.80;99.90
12708;DHT22;6418;50.824;4.718;2022-10-30T14:52:13;19.80;99.90
12708;DHT22;6418;50.824;4.718;2022-10-30T14:54:45;19.80;99.90
12708;DHT22;6418;50.824;4.718;2022-10-30T14:57:22;19.70;99.90
12708;DHT22;6418;50.824;4.718;2022-10-30T15:02:56;19.70;99.90
12708;DHT22;6418;50.824;4.718;2022-10-30T15:05:38;19.70;99.90
12708;DHT22;6418;50.824;4.718;2022-10-30T15:11:15;19.60;99.90
12708;DHT22;6418;50.824;4.718;2022-10-30T15:13:49;19.50;99.90
12708;DHT22;6418;50.824;4.718;2022-10-30T15:16:18;19.50;99.90
12708;DHT22;6418;50.824;4.718;2022-10-30T15:18:49;19.40;99.90
12708;DHT22;6418;50.824;4.718;2022-10-30T15:21:21;19.40;99.90
12708;DHT22;6418;50.824;4.718;2022-10-30T15:23:50;19.40;99.90
12708;DHT22;6418;50.824;4.718;2022-10-30T15:26:22;19.30;99.90
12708;DHT22;6418;50.824;4.718;2022-10-30T15:28:51;19.20;99.90
12708;DHT22;6418;50.824;4.718;2022-10-30T15:31:21;19.20;99.90
12708;DHT22;6418;50.824;4.718;2022-10-30T15:33:49;19.20;99.90
12708;DHT22;6418;50.824;4.718;2022-10-30T15:36:17;19.20;99.90
12708;DHT22;6418;50.824;4.718;2022-10-30T15:38:44;19.20;99.90
12708;DHT22;6418;50.824;4.718;2022-10-30T15:41:11;19.20;99.90
12708;DHT22;6418;50.824;4.718;2022-10-30T15:43:40;19.10;99.90
12708;DHT22;6418;50.824;4.718;2022-10-30T15:46:10;19.10;99.90
12708;DHT22;6418;50.824;4.718;2022-10-30T15:48:39;19.10;99.90
12708;DHT22;6418;50.824;4.718;2022-10-30T15:51:12;19.00;99.90
12708;DHT22;6418;50.824;4.718;2022-10-30T15:53:44;19.00;99.90
12708;DHT22;6418;50.824;4.718;2022-10-30T15:56:16;19.00;99.90
12708;DHT22;6418;50.824;4.718;2022-10-30T15:58:48;18.90;99.90
12708;DHT22;6418;50.824;4.718;2022-10-30T16:01:24;18.90;99.90
12708;DHT22;6418;50.824;4.718;2022-10-30T16:03:52;18.80;99.90
12708;DHT22;6418;50.824;4.718;2022-10-30T16:06:20;18.80;99.90
12708;DHT22;6418;50.824;4.718;2022-10-30T16:08:49;18.70;99.90
12708;DHT22;6418;50.824;4.718;2022-10-30T16:11:16;18.70;99.90
12708;DHT22;6418;50.824;4.718;2022-10-30T16:13:45;18.70;99.90
12708;DHT22;6418;50.824;4.718;2022-10-30T16:16:18;18.60;99.90